Time;durP1;ratioP1;P1;durP2;ratioP2;P2;SDS_P1;SDS_P2;PMS_P1;PMS_P2;Temp;Humidity;BMP_temperature;BMP_pressure;BME280_temperature;BME280_humidity;BME280_pressure;Samples;Min_cycle;Max_cycle;Signal;HPM_P1;HPM_P2
2022/03/22 00:00:30;;;;;;;4.78;3.10;;;20.10;49.50;;;;;;4445080;32;20140;-78
2022/03/22 00:02:57;;;;;;;5.32;3.17;;;20.10;49.50;;;;;;4431559;32;20122;-78
2022/03/22 00:05:23;;;;;;;4.75;3.20;;;20.10;49.50;;;;;;4445238;32;20101;-78
2022/03/22 00:07:50;;;;;;;4.90;3.30;;;20.10;49.50;;;;;;4445267;32;20093;-78
2022/03/22 00:10:16;;;;;;;4.25;3.20;;;20.10;49.50;;;;;;4445278;32;20208;-78
2022/03/22 00:12:43;;;;;;;4.90;3.53;;;20.10;49.50;;;;;;4431297;32;20235;-77
2022/03/22 01:02:34;;;;;;;4.43;3.47;;;19.80;49.60;;;;;;2386999;26;20129;-79
2022/03/22 01:05:13;;;;;;;4.85;3.00;;;19.80;49.60;;;;;;4447134;32;20069;-79
2022/03/22 01:07:41;;;;;;;5.68;3.50;;;19.80;49.70;;;;;;4447154;32;20074;-79
2022/03/22 01:10:09;;;;;;;5.38;3.42;;;19.70;49.60;;;;;;4447028;32;20232;-79
2022/03/22 01:12:38;;;;;;;4.72;3.83;;;19.70;49.60;;;;;;4447476;32;20412;-80
2022/03/22 01:15:15;;;;;;;4.45;3.65;;;19.70;49.60;;;;;;4447334;32;20058;-79
2022/03/22 01:17:45;;;;;;;6.28;3.47;;;19.70;49.70;;;;;;4447070;32;20227;-79
2022/03/22 01:20:11;;;;;;;5.15;3.50;;;19.70;49.70;;;;;;4447050;32;20231;-79
2022/03/22 01:22:39;;;;;;;5.80;4.22;;;19.70;49.70;;;;;;4447278;32;20459;-80
2022/03/22 01:25:08;;;;;;;5.57;3.80;;;19.70;49.70;;;;;;4446059;32;20205;-78
2022/03/22 01:27:34;;;;;;;4.25;3.78;;;19.70;49.70;;;;;;4447202;32;20140;-80
2022/03/22 01:30:00;;;;;;;7.03;3.90;;;19.60;49.70;;;;;;4446661;32;20152;-76
2022/03/22 01:32:26;;;;;;;4.28;3.55;;;19.60;49.70;;;;;;4447017;32;20066;-78
2022/03/22 01:34:52;;;;;;;5.22;3.97;;;19.60;49.70;;;;;;4446152;32;20163;-79
2022/03/22 01:37:18;;;;;;;6.72;4.07;;;19.60;49.70;;;;;;4447020;32;20535;-79
2022/03/22 01:39:44;;;;;;;6.28;3.67;;;19.60;49.70;;;;;;4447135;32;20066;-79
2022/03/22 01:42:11;;;;;;;4.65;3.80;;;19.60;49.70;;;;;;4446532;32;20058;-79
2022/03/22 01:44:36;;;;;;;5.63;3.72;;;19.60;49.70;;;;;;4446808;32;20160;-80
2022/03/22 01:47:03;;;;;;;5.15;3.67;;;19.60;49.70;;;;;;4445483;32;20208;-79
2022/03/22 01:49:30;;;;;;;4.57;3.40;;;19.60;49.70;;;;;;4447038;32;20199;-79
2022/03/22 01:51:56;;;;;;;7.45;4.25;;;19.60;49.70;;;;;;4447011;32;20097;-79
2022/03/22 01:54:23;;;;;;;3.85;3.40;;;19.60;49.70;;;;;;4446621;32;20411;-79
2022/03/22 01:56:52;;;;;;;3.88;3.42;;;19.50;49.60;;;;;;4446512;32;20074;-79
2022/03/22 01:59:18;;;;;;;5.63;3.85;;;19.50;49.70;;;;;;4445029;32;20086;-78
2022/03/22 02:07:17;;;;;;;5.03;3.95;;;19.50;50.60;;;;;;4446421;32;20077;-79
2022/03/22 02:09:42;;;;;;;5.07;3.85;;;19.50;49.60;;;;;;4446378;32;20204;-80
2022/03/22 02:12:09;;;;;;;5.35;3.97;;;19.50;49.70;;;;;;4446220;32;20236;-80
2022/03/22 02:14:35;;;;;;;5.25;3.60;;;19.50;49.70;;;;;;4446024;32;20101;-80
2022/03/22 02:17:10;;;;;;;6.70;3.97;;;19.40;49.60;;;;;;4446246;32;20492;-74
2022/03/22 02:19:38;;;;;;;4.18;3.40;;;19.40;49.60;;;;;;4446548;32;20073;-80
2022/03/22 02:22:09;;;;;;;5.57;3.83;;;19.40;49.70;;;;;;4446449;32;20082;-79
2022/03/22 02:24:36;;;;;;;5.18;3.97;;;19.40;49.60;;;;;;4446425;32;20093;-80
2022/03/22 02:27:03;;;;;;;4.35;3.95;;;19.40;49.70;;;;;;4445229;32;20078;-79
2022/03/22 02:29:29;;;;;;;4.13;3.72;;;19.40;49.70;;;;;;4445653;32;20486;-79
2022/03/22 02:31:55;;;;;;;4.07;3.67;;;19.40;49.70;;;;;;4446120;32;20078;-80
2022/03/22 02:34:20;;;;;;;4.90;3.75;;;19.40;49.70;;;;;;4445255;32;20819;-80
2022/03/22 02:36:46;;;;;;;4.47;3.58;;;19.40;49.70;;;;;;4446216;32;20065;-79
2022/03/22 02:39:12;;;;;;;5.15;4.22;;;19.40;49.80;;;;;;4445759;32;20168;-78
2022/03/22 02:41:38;;;;;;;4.70;4.20;;;19.40;49.70;;;;;;4444822;32;20097;-80
2022/03/22 02:44:05;;;;;;;4.75;3.92;;;19.30;49.70;;;;;;4444943;32;20078;-79
2022/03/22 02:46:31;;;;;;;4.82;4.13;;;19.30;49.70;;;;;;4444647;32;20062;-80
2022/03/22 02:48:57;;;;;;;4.65;4.15;;;19.30;49.70;;;;;;4445891;32;20082;-79
2022/03/22 02:51:22;;;;;;;4.95;4.25;;;19.30;49.70;;;;;;4445967;32;20173;-80
2022/03/22 02:53:48;;;;;;;5.07;4.10;;;19.30;49.70;;;;;;4445937;32;20105;-79
2022/03/22 02:56:14;;;;;;;4.63;3.97;;;19.30;49.70;;;;;;4444732;32;20082;-79
2022/03/22 02:58:40;;;;;;;5.85;3.97;;;19.30;49.70;;;;;;4444493;32;20411;-79
2022/03/22 03:01:06;;;;;;;4.70;4.13;;;19.30;49.70;;;;;;4444586;32;20086;-80
2022/03/22 03:03:34;;;;;;;5.97;4.38;;;19.30;49.70;;;;;;4445380;32;20202;-80
2022/03/22 03:06:00;;;;;;;5.18;3.95;;;19.30;49.70;;;;;;4445876;32;20508;-80
2022/03/22 03:08:27;;;;;;;4.78;3.90;;;19.20;49.70;;;;;;4445656;32;20212;-80
2022/03/22 03:10:54;;;;;;;5.32;4.10;;;19.20;49.70;;;;;;4431605;32;20411;-80
2022/03/22 03:13:19;;;;;;;4.95;4.03;;;19.20;49.70;;;;;;4445463;32;20073;-80
2022/03/22 03:15:47;;;;;;;5.38;4.00;;;19.20;49.70;;;;;;4445652;32;20074;-80
2022/03/22 03:18:13;;;;;;;6.10;4.38;;;19.20;49.70;;;;;;4444612;32;20167;-80
2022/03/22 03:20:39;;;;;;;6.22;4.25;;;19.20;49.70;;;;;;4445275;32;20232;-78
2022/03/22 03:23:05;;;;;;;5.07;4.45;;;19.20;49.70;;;;;;4445577;32;20122;-80
2022/03/22 03:25:31;;;;;;;5.68;4.10;;;19.20;49.70;;;;;;4445473;32;20105;-80
2022/03/22 03:27:57;;;;;;;5.13;4.28;;;19.20;49.80;;;;;;4444546;32;20082;-80
2022/03/22 03:30:23;;;;;;;4.72;3.92;;;19.20;49.80;;;;;;4444833;32;20062;-80
2022/03/22 03:32:49;;;;;;;5.43;4.70;;;19.10;49.70;;;;;;4445246;32;20098;-80
2022/03/22 03:35:15;;;;;;;6.05;4.43;;;19.10;49.70;;;;;;4444363;32;20411;-78
2022/03/22 03:37:44;;;;;;;5.45;4.45;;;19.10;49.70;;;;;;4445259;32;20077;-77
2022/03/22 03:40:11;;;;;;;4.88;4.20;;;19.10;49.70;;;;;;4431446;32;20392;-80
2022/03/22 03:42:42;;;;;;;5.15;4.63;;;19.10;49.70;;;;;;4445299;32;20216;-80
2022/03/22 03:47:55;;;;;;;5.55;4.72;;;19.10;49.80;;;;;;4445383;32;20074;-79
2022/03/22 03:50:21;;;;;;;5.28;4.63;;;19.10;49.70;;;;;;4439994;32;20130;-80
2022/03/22 03:52:47;;;;;;;5.25;4.65;;;19.00;49.70;;;;;;4429777;32;20143;-79
2022/03/22 03:55:13;;;;;;;5.45;4.60;;;19.10;49.70;;;;;;4429417;32;20090;-80
2022/03/22 03:57:39;;;;;;;5.85;4.30;;;19.00;49.80;;;;;;4429730;32;20086;-80
2022/03/22 04:00:07;;;;;;;4.68;4.13;;;19.00;49.70;;;;;;4428208;32;20574;-79
2022/03/22 04:02:32;;;;;;;6.32;5.05;;;19.00;49.70;;;;;;4429509;32;20082;-80
2022/03/22 04:04:58;;;;;;;6.70;4.80;;;19.00;49.80;;;;;;4429378;32;20427;-80
2022/03/22 04:07:26;;;;;;;5.20;4.70;;;19.00;49.70;;;;;;4429625;32;20070;-79
2022/03/22 04:09:54;;;;;;;6.07;5.03;;;19.00;49.80;;;;;;4429400;32;20224;-80
2022/03/22 04:12:22;;;;;;;6.10;4.57;;;19.00;49.80;;;;;;4429617;32;20102;-80
2022/03/22 04:14:51;;;;;;;5.38;4.60;;;19.00;49.80;;;;;;4429607;32;20082;-79
2022/03/22 04:17:18;;;;;;;6.03;4.65;;;18.90;49.70;;;;;;4429293;32;20078;-79
2022/03/22 04:19:45;;;;;;;5.75;4.70;;;18.90;49.70;;;;;;4429590;32;20212;-80
2022/03/22 04:22:11;;;;;;;5.15;4.53;;;18.90;49.70;;;;;;4429238;32;20090;-80
2022/03/22 04:24:37;;;;;;;6.07;5.10;;;18.90;49.70;;;;;;4429274;32;20086;-80
2022/03/22 04:32:41;;;;;;;5.78;5.00;;;18.90;49.70;;;;;;4429405;32;20094;-80
2022/03/22 04:35:08;;;;;;;6.82;4.85;;;18.90;49.70;;;;;;4429494;32;20093;-79
2022/03/22 04:37:34;;;;;;;6.68;5.43;;;18.90;49.70;;;;;;4430620;32;20097;-79
2022/03/22 04:40:00;;;;;;;5.40;4.85;;;18.90;49.70;;;;;;4432332;32;20066;-79
2022/03/22 04:42:26;;;;;;;6.18;5.18;;;18.80;49.60;;;;;;4432617;32;20165;-80
2022/03/22 04:44:52;;;;;;;6.43;5.53;;;18.80;49.60;;;;;;4432360;32;20063;-80
2022/03/22 04:47:19;;;;;;;6.75;5.13;;;18.80;49.60;;;;;;4432500;32;20122;-79
2022/03/22 04:49:45;;;;;;;6.00;5.40;;;18.80;49.60;;;;;;4431365;32;20507;-80
2022/03/22 04:57:40;;;;;;;7.85;5.40;;;18.80;49.50;;;;;;4432319;32;20136;-80
2022/03/22 05:00:06;;;;;;;6.15;5.03;;;18.80;49.50;;;;;;4431857;32;20193;-79
2022/03/22 05:02:32;;;;;;;6.85;5.60;;;18.80;49.50;;;;;;4430154;32;20416;-79
2022/03/22 05:05:00;;;;;;;6.78;5.90;;;18.80;49.50;;;;;;4430615;32;20149;-79
2022/03/22 05:07:27;;;;;;;6.20;5.60;;;18.80;49.50;;;;;;4432184;32;20527;-80
2022/03/22 05:09:53;;;;;;;7.07;5.38;;;18.80;49.50;;;;;;4430653;32;20210;-80
2022/03/22 05:12:19;;;;;;;6.25;5.47;;;18.70;49.50;;;;;;4431934;32;20093;-80
2022/03/22 05:14:50;;;;;;;6.38;5.63;;;18.70;49.50;;;;;;4430989;32;20484;-79
2022/03/22 05:17:21;;;;;;;8.25;5.90;;;18.70;49.50;;;;;;4430964;32;20136;-79
2022/03/22 05:19:50;;;;;;;6.28;5.30;;;18.70;49.50;;;;;;4432021;32;20476;-79
2022/03/22 05:22:17;;;;;;;9.60;5.80;;;18.70;49.40;;;;;;4431955;32;20140;-80
2022/03/22 05:24:44;;;;;;;7.53;5.85;;;18.70;49.40;;;;;;4431894;32;20094;-79
2022/03/22 05:27:10;;;;;;;6.00;5.40;;;18.70;49.50;;;;;;4431501;32;20089;-78
2022/03/22 05:29:36;;;;;;;6.47;5.75;;;18.70;49.50;;;;;;4431488;32;20105;-80
2022/03/22 05:32:03;;;;;;;6.18;5.45;;;18.70;49.50;;;;;;4431509;32;20511;-80
2022/03/22 05:34:29;;;;;;;6.75;5.32;;;18.70;49.40;;;;;;4431587;32;20122;-80
2022/03/22 05:36:55;;;;;;;6.47;5.40;;;18.60;49.40;;;;;;4431809;32;20230;-79
2022/03/22 05:39:21;;;;;;;7.80;5.47;;;18.60;49.40;;;;;;4431678;32;20078;-79
2022/03/22 05:41:47;;;;;;;6.65;5.60;;;18.60;49.40;;;;;;4430237;32;20070;-79
2022/03/22 05:44:13;;;;;;;6.63;5.22;;;18.60;49.40;;;;;;4430510;32;20132;-79
2022/03/22 05:46:40;;;;;;;6.50;5.72;;;18.60;49.40;;;;;;4431523;32;20424;-79
2022/03/22 05:49:08;;;;;;;7.55;5.63;;;18.60;49.40;;;;;;4430596;32;20511;-79
2022/03/22 05:51:36;;;;;;;7.22;5.95;;;18.60;49.40;;;;;;4431547;32;20102;-79
2022/03/22 05:54:02;;;;;;;6.65;5.88;;;18.60;49.40;;;;;;4431548;32;20165;-79
2022/03/22 05:56:29;;;;;;;6.85;5.82;;;18.60;49.40;;;;;;4431405;32;20118;-78
2022/03/22 05:58:58;;;;;;;6.07;5.47;;;18.60;49.40;;;;;;4431122;32;20292;-79
2022/03/22 06:01:24;;;;;;;6.32;5.65;;;18.60;49.40;;;;;;4431159;32;20515;-79
2022/03/22 06:03:50;;;;;;;6.93;5.57;;;18.60;49.40;;;;;;4431195;32;20094;-79
2022/03/22 06:06:16;;;;;;;6.70;5.22;;;18.60;49.40;;;;;;4430974;32;20074;-79
2022/03/22 06:08:43;;;;;;;7.25;5.60;;;18.60;49.40;;;;;;4431022;32;20071;-79
2022/03/22 06:11:10;;;;;;;6.28;5.35;;;18.50;49.40;;;;;;4431136;32;20101;-79
2022/03/22 06:13:36;;;;;;;6.30;5.70;;;18.50;49.40;;;;;;4431344;32;20070;-80
2022/03/22 06:16:05;;;;;;;5.97;5.38;;;18.50;49.40;;;;;;4435206;32;20065;-79
2022/03/22 06:18:30;;;;;;;7.47;5.90;;;18.50;49.40;;;;;;4446478;32;20176;-80
2022/03/22 06:20:56;;;;;;;8.35;5.47;;;18.50;49.40;;;;;;4432271;32;20090;-79
2022/03/22 06:23:23;;;;;;;6.20;5.50;;;18.50;49.40;;;;;;4446468;32;20152;-79
2022/03/22 06:25:49;;;;;;;7.05;5.60;;;18.50;49.40;;;;;;4446431;32;20114;-79
2022/03/22 06:28:18;;;;;;;5.85;5.25;;;18.50;49.40;;;;;;4446392;32;20093;-79
2022/03/22 06:30:44;;;;;;;6.88;5.53;;;18.50;49.50;;;;;;4445624;32;20074;-78
2022/03/22 06:33:12;;;;;;;7.22;5.60;;;18.50;49.50;;;;;;4446119;32;20081;-74
2022/03/22 06:35:40;;;;;;;10.50;9.05;;;18.50;49.50;;;;;;4446390;32;20125;-74
2022/03/22 06:38:06;;;;;;;15.98;12.25;;;18.40;49.20;;;;;;4444795;32;20137;-74
2022/03/22 06:40:38;;;;;;;21.67;17.10;;;18.40;48.50;;;;;;4431900;32;20823;-75
2022/03/22 06:43:07;;;;;;;19.10;16.17;;;18.40;47.40;;;;;;4446173;32;20500;-80
2022/03/22 06:45:33;;;;;;;16.77;12.95;;;18.40;47.20;;;;;;4446173;32;20515;-78
2022/03/22 06:48:00;;;;;;;19.92;12.65;;;18.40;47.90;;;;;;4446084;32;20540;-79
2022/03/22 06:50:26;;;;;;;17.60;13.77;;;18.30;48.50;;;;;;4445910;32;20447;-79
2022/03/22 06:52:53;;;;;;;16.48;13.65;;;18.30;48.50;;;;;;4445701;32;20208;-81
2022/03/22 06:55:22;;;;;;;18.23;13.50;;;18.30;48.50;;;;;;4446076;32;20271;-80
2022/03/22 06:57:51;;;;;;;16.77;13.40;;;18.40;48.60;;;;;;4445836;32;20117;-80
2022/03/22 07:00:20;;;;;;;14.18;12.20;;;18.40;48.50;;;;;;4445111;32;20090;-80
2022/03/22 07:02:47;;;;;;;15.90;12.80;;;18.40;48.50;;;;;;4445659;32;20423;-80
2022/03/22 07:05:14;;;;;;;15.07;11.88;;;18.50;48.50;;;;;;4445949;32;20164;-81
2022/03/22 07:07:40;;;;;;;14.13;11.80;;;18.60;48.50;;;;;;4445954;32;20399;-81
2022/03/22 07:10:08;;;;;;;12.68;11.15;;;18.60;48.40;;;;;;4444715;32;20093;-79
2022/03/22 07:12:45;;;;;;;12.82;10.95;;;18.70;48.30;;;;;;4444688;32;20098;-80
2022/03/22 07:15:11;;;;;;;12.95;10.32;;;18.80;48.30;;;;;;4431617;32;20073;-79
2022/03/22 07:17:37;;;;;;;14.25;9.85;;;19.00;48.20;;;;;;4445753;32;20109;-80
2022/03/22 07:20:04;;;;;;;13.13;8.70;;;19.10;48.10;;;;;;4445240;32;20296;-78
2022/03/22 07:22:30;;;;;;;13.82;8.68;;;19.20;48.10;;;;;;4443822;32;20163;-77
2022/03/22 07:24:56;;;;;;;19.15;8.13;;;19.30;48.00;;;;;;4444118;32;20086;-80
2022/03/22 07:27:22;;;;;;;10.18;7.82;;;19.40;47.90;;;;;;4444226;32;20066;-79
2022/03/22 07:29:48;;;;;;;10.10;7.60;;;19.50;47.80;;;;;;4443808;32;20510;-77
2022/03/22 07:32:14;;;;;;;14.23;7.43;;;19.70;47.80;;;;;;4445446;32;20082;-80
2022/03/22 07:34:40;;;;;;;11.10;6.90;;;19.80;47.60;;;;;;4444402;32;20066;-78
2022/03/22 07:37:06;;;;;;;9.73;6.72;;;19.90;47.50;;;;;;4445218;32;20055;-75
2022/03/22 07:39:34;;;;;;;11.57;6.28;;;20.00;47.50;;;;;;4445266;32;20078;-78
2022/03/22 07:42:01;;;;;;;9.98;6.47;;;20.10;47.50;;;;;;4444246;32;20515;-80
2022/03/22 07:44:27;;;;;;;12.30;5.93;;;20.20;47.50;;;;;;4445364;32;20167;-77
2022/03/22 07:46:53;;;;;;;7.90;6.13;;;20.30;47.40;;;;;;4445079;32;20180;-77
2022/03/22 07:54:48;;;;;;;17.60;6.65;;;20.50;47.60;;;;;;4443740;32;20201;-78
2022/03/22 07:57:14;;;;;;;16.88;5.78;;;20.80;47.50;;;;;;4443639;32;20613;-78
2022/03/22 07:59:40;;;;;;;27.05;5.95;;;20.90;47.00;;;;;;4444787;32;20086;-78
2022/03/22 08:02:06;;;;;;;17.80;6.18;;;21.10;46.60;;;;;;4444176;32;20085;-78
2022/03/22 08:04:32;;;;;;;19.38;6.65;;;21.20;46.30;;;;;;4444765;32;20085;-80
2022/03/22 08:06:58;;;;;;;17.73;5.85;;;21.20;46.20;;;;;;4430823;32;20483;-79
2022/03/22 08:09:23;;;;;;;12.85;6.45;;;21.20;46.20;;;;;;4444972;32;20074;-79
2022/03/22 08:11:52;;;;;;;17.80;7.88;;;21.10;46.10;;;;;;4444448;32;20200;-71
2022/03/22 08:14:20;;;;;;;21.08;9.18;;;21.00;46.10;;;;;;4444440;32;20113;-72
2022/03/22 08:16:46;;;;;;;20.80;10.63;;;21.00;46.00;;;;;;4444474;32;20082;-71
2022/03/22 08:19:17;;;;;;;14.93;10.90;;;20.80;45.90;;;;;;4444746;32;20070;-79
2022/03/22 08:21:43;;;;;;;18.83;12.25;;;20.70;45.80;;;;;;4444642;32;20156;-79
2022/03/22 08:24:09;;;;;;;17.25;13.25;;;20.60;45.70;;;;;;4444845;32;20690;-79
2022/03/22 08:26:36;;;;;;;19.17;12.43;;;20.50;45.60;;;;;;4444631;32;20066;-80
2022/03/22 08:29:03;;;;;;;20.75;14.30;;;20.40;45.70;;;;;;4444388;32;20062;-70
2022/03/22 08:31:29;;;;;;;28.38;15.63;;;20.30;45.90;;;;;;4444701;32;20110;-79
2022/03/22 08:33:56;;;;;;;22.38;13.23;;;20.30;46.80;;;;;;4444964;32;20129;-80
2022/03/22 08:36:23;;;;;;;22.35;14.25;;;20.20;46.90;;;;;;4444859;32;20078;-80
2022/03/22 08:38:49;;;;;;;48.03;22.05;;;20.20;47.20;;;;;;4444586;32;20276;-78
2022/03/22 08:41:17;;;;;;;29.80;16.85;;;20.10;47.80;;;;;;4444662;32;20107;-66
2022/03/22 08:43:43;;;;;;;27.98;17.08;;;20.00;48.00;;;;;;4430850;32;20495;-70
2022/03/22 08:46:09;;;;;;;40.60;19.55;;;20.00;48.20;;;;;;4430323;32;20208;-77
2022/03/22 08:48:35;;;;;;;34.05;18.77;;;20.00;48.40;;;;;;4444727;32;20168;-70
2022/03/22 08:51:01;;;;;;;24.85;16.40;;;19.90;48.50;;;;;;4444617;32;20172;-76
2022/03/22 08:53:27;;;;;;;30.25;16.60;;;19.80;48.40;;;;;;4444620;32;20380;-75
2022/03/22 08:55:53;;;;;;;26.23;17.08;;;19.80;48.30;;;;;;4444581;32;20148;-76
2022/03/22 08:58:20;;;;;;;28.23;16.75;;;19.80;48.20;;;;;;4444546;32;20110;-74
2022/03/22 09:00:47;;;;;;;26.33;17.25;;;19.80;48.20;;;;;;4443747;32;20085;-80
2022/03/22 09:03:16;;;;;;;26.05;18.00;;;19.70;48.10;;;;;;4445025;32;20097;-79
2022/03/22 09:08:26;;;;;;;30.08;21.63;;;19.70;47.50;;;;;;4444617;32;20420;-78
2022/03/22 09:10:52;;;;;;;28.58;21.42;;;19.60;46.80;;;;;;4444514;32;20094;-80
2022/03/22 09:13:19;;;;;;;36.05;23.38;;;19.60;46.40;;;;;;4444318;32;20093;-73
2022/03/22 09:15:48;;;;;;;32.70;24.52;;;19.60;46.30;;;;;;4441952;32;20074;-82
2022/03/22 09:18:14;;;;;;;28.42;23.08;;;19.50;46.10;;;;;;4444406;32;20415;-75
2022/03/22 09:20:41;;;;;;;29.85;22.92;;;19.50;45.90;;;;;;4444475;32;20090;-81
2022/03/22 09:23:08;;;;;;;32.80;22.90;;;19.50;45.80;;;;;;4446039;32;20474;-79
2022/03/22 09:25:35;;;;;;;32.22;22.80;;;19.40;45.70;;;;;;4446601;32;20094;-79
2022/03/22 09:28:04;;;;;;;31.90;24.33;;;19.40;45.60;;;;;;4447031;32;20070;-80
2022/03/22 09:30:30;;;;;;;33.92;24.17;;;19.40;45.40;;;;;;4432500;32;20104;-78
2022/03/22 09:32:59;;;;;;;34.88;24.00;;;19.40;45.30;;;;;;4447247;32;20073;-79
2022/03/22 09:35:25;;;;;;;31.45;24.38;;;19.30;45.10;;;;;;4446741;32;20105;-79
2022/03/22 09:37:51;;;;;;;28.35;23.50;;;19.30;45.10;;;;;;4442499;32;20074;-71
2022/03/22 09:40:21;;;;;;;29.13;23.80;;;19.30;45.10;;;;;;4430053;32;20094;-75
2022/03/22 09:42:50;;;;;;;30.42;23.02;;;19.30;45.20;;;;;;4430254;32;20079;-79
2022/03/22 09:45:18;;;;;;;32.45;24.83;;;19.20;45.20;;;;;;4430828;32;20168;-77
2022/03/22 09:47:45;;;;;;;30.42;24.17;;;19.20;45.00;;;;;;4431386;32;20083;-79
2022/03/22 09:50:13;;;;;;;32.55;23.52;;;19.20;45.10;;;;;;4431295;32;20085;-78
2022/03/22 09:52:39;;;;;;;29.17;23.48;;;19.20;45.00;;;;;;4429531;32;20515;-78
2022/03/22 09:55:08;;;;;;;33.28;24.60;;;19.20;45.00;;;;;;4431063;32;20070;-77
2022/03/22 09:57:36;;;;;;;28.42;22.90;;;19.20;45.20;;;;;;4431034;32;20087;-77
2022/03/22 10:00:03;;;;;;;30.40;23.35;;;19.20;45.30;;;;;;4430660;32;20070;-72
2022/03/22 10:02:35;;;;;;;28.20;24.25;;;19.20;45.30;;;;;;4430453;32;20128;-77
2022/03/22 10:05:02;;;;;;;33.50;24.55;;;19.20;45.60;;;;;;4415817;32;20480;-79
2022/03/22 10:07:28;;;;;;;30.38;24.55;;;19.10;45.60;;;;;;4415499;32;20501;-73
2022/03/22 10:09:56;;;;;;;31.23;23.27;;;19.10;45.80;;;;;;4401961;32;20288;-77
2022/03/22 10:12:33;;;;;;;31.77;24.33;;;19.10;45.80;;;;;;4415068;32;20071;-75
2022/03/22 10:15:12;;;;;;;31.55;24.65;;;19.10;45.80;;;;;;4441422;32;20062;-75
2022/03/22 10:17:40;;;;;;;33.88;24.30;;;19.10;45.90;;;;;;4445854;32;20101;-75
2022/03/22 10:20:24;;;;;;;30.00;23.58;;;19.10;45.90;;;;;;4432321;32;20110;-76
2022/03/22 10:23:01;;;;;;;29.95;23.33;;;19.10;45.90;;;;;;4430016;32;20154;-77
2022/03/22 10:25:31;;;;;;;30.90;24.35;;;19.10;46.00;;;;;;4429735;32;20220;-75
2022/03/22 10:27:59;;;;;;;34.35;23.85;;;19.10;46.00;;;;;;4429774;32;20224;-75
2022/03/22 10:30:26;;;;;;;31.50;25.05;;;19.10;45.90;;;;;;4429357;32;20213;-76
2022/03/22 10:32:52;;;;;;;34.35;24.15;;;19.00;45.90;;;;;;4429751;32;20095;-76
2022/03/22 10:35:21;;;;;;;28.98;22.27;;;19.00;45.90;;;;;;4428726;32;20244;-75
2022/03/22 10:37:52;;;;;;;31.50;24.45;;;19.00;45.90;;;;;;4429555;32;20520;-76
2022/03/22 10:40:27;;;;;;;33.53;25.08;;;19.00;45.90;;;;;;4429073;32;20074;-72
2022/03/22 10:43:06;;;;;;;29.00;23.75;;;19.00;45.80;;;;;;4429230;32;20090;-75
2022/03/22 10:45:49;;;;;;;34.17;24.60;;;19.00;45.90;;;;;;4413038;32;20162;-72
2022/03/22 10:48:22;;;;;;;35.60;24.77;;;19.00;45.90;;;;;;4429705;32;20062;-75
2022/03/22 10:50:49;;;;;;;32.50;25.25;;;18.90;45.90;;;;;;4430068;32;20074;-76
2022/03/22 10:53:17;;;;;;;35.90;24.77;;;18.90;46.10;;;;;;4429758;32;20083;-75
2022/03/22 10:55:44;;;;;;;35.97;24.55;;;18.90;46.10;;;;;;4429732;32;20106;-76
2022/03/22 10:58:18;;;;;;;33.20;23.58;;;18.90;46.10;;;;;;4429580;32;20054;-75
2022/03/22 11:00:45;;;;;;;33.50;24.23;;;18.90;46.20;;;;;;4416476;32;20070;-79
2022/03/22 11:03:12;;;;;;;36.35;25.00;;;18.90;46.20;;;;;;4434369;32;20096;-78
2022/03/22 11:05:46;;;;;;;34.42;23.83;;;18.90;46.40;;;;;;4445787;32;20196;-77
2022/03/22 11:08:12;;;;;;;31.13;23.23;;;18.90;46.50;;;;;;4445647;32;20086;-77
2022/03/22 11:10:38;;;;;;;30.83;22.42;;;18.90;46.60;;;;;;4445873;32;20160;-77
2022/03/22 11:13:04;;;;;;;32.30;22.40;;;18.90;46.70;;;;;;4445473;32;20416;-76
2022/03/22 11:15:35;;;;;;;27.15;21.55;;;18.90;46.70;;;;;;4445475;32;20224;-76
2022/03/22 11:18:07;;;;;;;31.88;21.88;;;18.90;46.80;;;;;;4445631;32;20096;-76
2022/03/22 11:20:33;;;;;;;31.50;21.02;;;18.90;46.90;;;;;;4445050;32;20447;-76
2022/03/22 11:23:00;;;;;;;27.58;19.73;;;18.90;47.00;;;;;;4445459;32;20192;-77
2022/03/22 11:25:34;;;;;;;28.58;19.65;;;18.90;47.10;;;;;;4445339;32;20094;-77
2022/03/22 11:28:08;;;;;;;27.05;19.20;;;18.90;47.20;;;;;;4445539;32;20122;-77
2022/03/22 11:30:36;;;;;;;30.02;20.00;;;18.90;47.20;;;;;;4444990;32;20412;-78
2022/03/22 11:35:57;;;;;;;25.25;19.13;;;18.90;47.40;;;;;;4445661;32;20156;-78
2022/03/22 11:38:43;;;;;;;26.85;19.02;;;18.90;47.40;;;;;;4445229;32;20578;-78
2022/03/22 11:44:34;;;;;;;27.98;20.23;;;18.90;47.40;;;;;;4445172;32;20137;-79
2022/03/22 11:47:11;;;;;;;29.30;20.38;;;18.90;47.30;;;;;;4444554;32;20479;-79
2022/03/22 11:50:01;;;;;;;27.55;19.83;;;18.90;47.40;;;;;;4445216;32;20114;-79
2022/03/22 11:52:41;;;;;;;30.88;20.27;;;18.90;47.40;;;;;;4444859;32;20082;-79
2022/03/22 11:55:07;;;;;;;27.67;19.95;;;18.90;47.50;;;;;;4444975;32;20195;-77
2022/03/22 11:57:49;;;;;;;31.35;19.48;;;18.90;47.50;;;;;;4431198;32;20204;-78
2022/03/22 12:00:17;;;;;;;27.40;19.35;;;18.90;47.50;;;;;;4444702;32;20232;-78
2022/03/22 12:02:52;;;;;;;26.85;18.00;;;18.90;47.50;;;;;;4430594;32;20132;-80
2022/03/22 12:05:18;;;;;;;24.80;17.60;;;18.90;47.60;;;;;;4445002;32;20085;-78
2022/03/22 12:07:45;;;;;;;31.45;18.65;;;18.90;47.70;;;;;;4445040;32;20163;-78
2022/03/22 12:10:13;;;;;;;27.15;17.00;;;18.90;47.80;;;;;;4444168;32;20078;-79
2022/03/22 12:12:42;;;;;;;21.10;16.42;;;18.90;47.90;;;;;;4444216;32;20503;-77
2022/03/22 12:15:11;;;;;;;22.95;16.50;;;18.90;48.00;;;;;;4444336;32;20097;-77
2022/03/22 12:17:38;;;;;;;25.50;15.80;;;18.90;48.00;;;;;;4444135;32;20070;-79
2022/03/22 12:20:13;;;;;;;20.50;14.88;;;18.90;48.10;;;;;;4444095;32;20095;-78
2022/03/22 12:22:41;;;;;;;25.80;15.10;;;18.90;48.10;;;;;;4444217;32;20247;-75
2022/03/22 12:25:12;;;;;;;21.00;14.95;;;18.90;48.10;;;;;;4444256;32;20070;-78
2022/03/22 12:28:04;;;;;;;22.33;15.15;;;18.90;48.20;;;;;;4444185;32;20105;-78
2022/03/22 12:30:38;;;;;;;21.45;14.85;;;19.00;48.30;;;;;;4444045;32;20165;-79
2022/03/22 12:33:18;;;;;;;24.08;14.23;;;19.00;48.40;;;;;;4444097;32;20070;-77
2022/03/22 12:35:46;;;;;;;21.77;14.70;;;19.00;49.30;;;;;;4444054;32;20409;-79
2022/03/22 12:38:12;;;;;;;24.45;14.20;;;19.00;48.40;;;;;;4444063;32;20081;-79
2022/03/22 12:40:38;;;;;;;19.92;14.15;;;18.90;48.40;;;;;;4417293;32;20076;-78
2022/03/22 12:43:06;;;;;;;22.42;13.45;;;19.00;48.50;;;;;;4443997;32;20074;-78
2022/03/22 12:45:32;;;;;;;18.30;12.93;;;19.00;48.60;;;;;;4430352;32;20093;-79
2022/03/22 12:48:00;;;;;;;17.80;13.02;;;19.00;48.60;;;;;;4444858;32;20070;-78
2022/03/22 12:50:27;;;;;;;16.70;12.48;;;19.00;48.60;;;;;;4444707;32;20120;-79
2022/03/22 12:52:54;;;;;;;16.80;13.23;;;19.00;48.70;;;;;;4443954;32;20224;-75
2022/03/22 12:55:22;;;;;;;20.63;13.32;;;19.00;48.70;;;;;;4444441;32;20271;-76
2022/03/22 12:57:56;;;;;;;17.23;13.05;;;19.00;48.80;;;;;;4432222;32;20086;-77
2022/03/22 13:00:25;;;;;;;18.38;12.82;;;19.00;48.80;;;;;;4434163;32;20098;-76
2022/03/22 13:02:51;;;;;;;22.20;12.65;;;19.00;48.90;;;;;;4445773;32;20085;-75
2022/03/22 13:05:27;;;;;;;19.08;12.90;;;19.00;48.90;;;;;;4446300;32;20082;-76
2022/03/22 13:07:53;;;;;;;20.27;12.52;;;19.00;48.90;;;;;;4446728;32;20264;-77
2022/03/22 13:13:17;;;;;;;19.23;13.13;;;19.00;48.90;;;;;;4445868;32;20120;-72
2022/03/22 13:15:53;;;;;;;20.23;12.45;;;19.10;48.90;;;;;;4445992;32;20244;-75
2022/03/22 13:18:20;;;;;;;21.70;13.07;;;19.00;48.80;;;;;;4445679;32;20078;-76
2022/03/22 13:20:46;;;;;;;19.60;13.05;;;19.00;48.80;;;;;;4445206;32;20095;-76
2022/03/22 13:23:14;;;;;;;18.23;12.98;;;19.10;48.90;;;;;;4445913;32;20109;-77
2022/03/22 13:25:43;;;;;;;18.25;12.55;;;19.10;48.90;;;;;;4446098;32;20082;-76
2022/03/22 13:28:16;;;;;;;19.27;13.55;;;19.10;48.90;;;;;;4446853;32;20137;-75
2022/03/22 13:30:49;;;;;;;18.40;12.90;;;19.10;48.90;;;;;;4446502;32;20066;-76
2022/03/22 13:33:17;;;;;;;20.10;13.55;;;19.10;48.90;;;;;;4445997;32;20088;-69
2022/03/22 13:36:03;;;;;;;19.05;13.38;;;19.10;49.00;;;;;;4446256;32;20535;-77
2022/03/22 13:38:32;;;;;;;19.50;13.75;;;19.10;48.90;;;;;;4446289;32;20140;-76
2022/03/22 13:41:06;;;;;;;15.82;11.93;;;19.10;49.00;;;;;;4446067;32;20129;-77
2022/03/22 13:43:44;;;;;;;18.10;12.15;;;19.10;49.00;;;;;;4445651;32;20088;-75
2022/03/22 13:46:11;;;;;;;17.25;11.85;;;19.20;49.00;;;;;;4445749;32;20291;-76
2022/03/22 13:48:46;;;;;;;17.60;11.40;;;19.20;49.00;;;;;;4446266;32;20408;-76
2022/03/22 13:51:20;;;;;;;18.15;12.90;;;19.20;49.00;;;;;;4432499;32;20077;-76
2022/03/22 13:53:49;;;;;;;19.35;12.35;;;19.20;49.00;;;;;;4446255;32;20212;-76
2022/03/22 13:56:22;;;;;;;15.85;11.82;;;19.20;49.10;;;;;;4445897;32;20211;-76
2022/03/22 13:58:48;;;;;;;17.15;11.68;;;19.20;49.00;;;;;;4445984;32;20531;-76
2022/03/22 14:01:15;;;;;;;16.67;11.57;;;19.20;49.00;;;;;;4444661;32;20074;-76
2022/03/22 14:03:41;;;;;;;16.08;11.07;;;19.20;49.10;;;;;;4445420;32;20307;-76